This is the latest recevied weather packets stored in our database for station/object EA1IOK-13. If no packets are shown the sender has not sent any weather packets the latest 10 day(s).
| Time | Temp. | Humidity | Pressure | Rain* | Wind** | Luminosity | Snow |
|---|---|---|---|---|---|---|---|
| 1777457949 | 13.33° C | 89% | 1006.9 hPa | 0 mm | - | - | - |
| 1777457051 | 12.78° C | 90% | 1007 hPa | 0 mm | - | - | - |
| 1777455248 | 13.33° C | 91% | 1007.1 hPa | 0 mm | - | - | - |
| 1777454352 | 13.33° C | 92% | 1007.1 hPa | 0 mm | - | - | - |
| 1777453452 | 12.78° C | 89% | 1007.1 hPa | 0 mm | - | - | - |
| 1777452549 | 12.78° C | 90% | 1007.1 hPa | 0 mm | - | - | - |
| 1777450751 | 12.22° C | 92% | 1007.3 hPa | 0 mm | - | - | - |
| 1777449851 | 11.67° C | 92% | 1007.1 hPa | 0 mm | - | - | - |
| 1777448949 | 11.67° C | 93% | 1007.2 hPa | 0 mm | - | - | - |
| 1777448049 | 11.11° C | 93% | 1007.2 hPa | 0 mm | - | - | - |
| 1777447151 | 11.11° C | 94% | 1007.1 hPa | 0 mm | - | - | - |
| 1777446249 | 11.11° C | 95% | 1007 hPa | 0 mm | - | - | - |
| 1777445349 | 10.56° C | 95% | 1006.9 hPa | 0 mm | - | - | - |
| 1777444449 | 10.56° C | 95% | 1006.8 hPa | 0 mm | - | - | - |
| 1777443550 | 10.56° C | 95% | 1006.7 hPa | 0 mm | - | - | - |
| 1777442651 | 10° C | 95% | 1006.6 hPa | 0 mm | - | - | - |
| 1777441754 | 10° C | 95% | 1006.4 hPa | 0 mm | - | - | - |
| 1777439949 | 10.56° C | 96% | 1006.6 hPa | 0 mm | - | - | - |
| 1777439048 | 10.56° C | 96% | 1006.7 hPa | 0 mm | - | - | - |
| 1777436349 | 10.56° C | 95% | 1007.1 hPa | 0 mm | - | - | - |
| 1777435452 | 10.56° C | 95% | 1007.1 hPa | 0 mm | - | - | - |
| 1777434549 | 10.56° C | 94% | 1007.3 hPa | 0 mm | - | - | - |
| 1777430949 | 11.11° C | 94% | 1007.6 hPa | 0 mm | - | - | - |
| 1777426449 | 11.67° C | 93% | 1008.4 hPa | 0 mm | - | - | - |
| 1777425551 | 11.67° C | 92% | 1008.4 hPa | 0 mm | - | - | - |
* Rain latest hour (hover to see other rain measurements)
** Current wind speed in m/s (hover to see current wind gust speed)